Time;durP1;ratioP1;P1;durP2;ratioP2;P2;SDS_P1;SDS_P2;PMS_P1;PMS_P2;Temp;Humidity;BMP_temperature;BMP_pressure;BME280_temperature;BME280_humidity;BME280_pressure;Samples;Min_cycle;Max_cycle;Signal;HPM_P1;HPM_P2
2023/08/03 00:09:47;;;;;;;1.55;0.60;;;;;;;20.99;91.44;98504.06;21001622;28;20526;-60
2023/08/03 00:19:48;;;;;;;1.00;0.43;;;;;;;20.99;91.48;98501.34;21002381;28;20153;-60
2023/08/03 00:29:50;;;;;;;1.92;0.40;;;;;;;20.99;91.52;98487.84;21010906;28;20044;-60
2023/08/03 00:39:51;;;;;;;1.52;0.47;;;;;;;20.98;91.56;98471.81;20999961;28;20072;-60
2023/08/03 00:49:53;;;;;;;0.40;0.32;;;;;;;20.98;91.49;98469.94;21015041;28;20063;-60
2023/08/03 00:59:55;;;;;;;0.65;0.40;;;;;;;20.97;91.67;98460.19;21015307;28;20055;-60
2023/08/03 01:09:57;;;;;;;1.35;0.73;;;;;;;20.97;91.68;98468.28;21001265;28;20045;-60
2023/08/03 01:20:00;;;;;;;0.68;0.30;;;;;;;20.96;91.82;98472.03;21013533;28;20525;-60
2023/08/03 01:30:02;;;;;;;1.08;0.40;;;;;;;20.97;91.65;98470.16;21029510;28;20123;-60
2023/08/03 01:40:05;;;;;;;0.38;0.38;;;;;;;20.97;91.71;98473.69;21006926;28;20428;-60
2023/08/03 01:50:06;;;;;;;0.73;0.30;;;;;;;20.96;91.60;98480.16;20987226;28;20071;-60
2023/08/03 02:00:09;;;;;;;1.17;0.20;;;;;;;20.95;91.56;98480.34;20980895;28;20101;-60
2023/08/03 02:10:21;;;;;;;0.35;0.20;;;;;;;20.94;91.71;98484.94;20980080;28;20412;-60
2023/08/03 02:20:22;;;;;;;0.75;0.28;;;;;;;20.94;91.65;98494.91;21019806;28;20041;-60
2023/08/03 02:30:24;;;;;;;1.00;0.47;;;;;;;20.92;91.71;98495.16;21014134;28;20052;-60
2023/08/03 02:40:26;;;;;;;0.47;0.35;;;;;;;20.92;91.82;98502.41;21015929;28;20062;-60
2023/08/03 02:50:27;;;;;;;0.35;0.35;;;;;;;20.90;91.92;98510.75;21005096;28;20090;-60
2023/08/03 03:00:34;;;;;;;0.70;0.50;;;;;;;20.89;91.86;98519.94;21010730;28;20110;-60
2023/08/03 03:10:36;;;;;;;0.63;0.40;;;;;;;20.90;91.84;98543.22;20991192;28;20562;-60
2023/08/03 03:20:38;;;;;;;0.85;0.50;;;;;;;20.90;92.18;98559.44;21017467;28;20040;-60
2023/08/03 03:30:44;;;;;;;0.73;0.40;;;;;;;20.89;92.04;98565.91;20980949;28;20492;-60
2023/08/03 03:40:45;;;;;;;0.90;0.43;;;;;;;20.88;92.21;98583.16;20994525;28;20041;-60
2023/08/03 03:50:48;;;;;;;1.15;0.40;;;;;;;20.88;92.31;98601.25;20982680;28;20041;-60
2023/08/03 04:00:50;;;;;;;1.50;0.65;;;;;;;20.86;92.47;98615.00;21005951;28;20101;-60
2023/08/03 04:10:52;;;;;;;0.60;0.38;;;;;;;20.86;92.46;98640.16;21024253;28;20560;-60
2023/08/03 04:20:54;;;;;;;0.47;0.40;;;;;;;20.85;92.60;98649.31;20985646;28;20040;-60
2023/08/03 04:30:57;;;;;;;0.65;0.50;;;;;;;20.81;92.57;98658.06;20994987;28;20063;-60
2023/08/03 04:41:00;;;;;;;1.63;0.65;;;;;;;20.85;92.61;98687.19;20971305;28;20047;-60
2023/08/03 04:51:04;;;;;;;1.23;0.50;;;;;;;20.84;92.72;98690.09;20976481;28;20436;-60
2023/08/03 05:01:06;;;;;;;1.23;0.52;;;;;;;20.84;92.82;98709.03;20974513;28;20557;-60
2023/08/03 05:11:07;;;;;;;1.75;0.68;;;;;;;20.83;92.92;98710.88;20979841;28;20420;-60
2023/08/03 05:21:12;;;;;;;0.70;0.45;;;;;;;20.84;93.16;98717.16;20965591;28;20048;-60
2023/08/03 05:31:14;;;;;;;1.63;0.65;;;;;;;20.84;93.37;98722.56;20981386;28;20051;-59
2023/08/03 05:41:16;;;;;;;1.92;0.75;;;;;;;20.85;93.70;98751.25;20995889;28;20047;-59
2023/08/03 05:51:26;;;;;;;1.23;0.70;;;;;;;20.86;94.02;98767.25;20989780;28;20114;-59
2023/08/03 06:01:27;;;;;;;1.38;0.50;;;;;;;20.88;94.29;98771.63;20979350;28;20072;-59
2023/08/03 06:11:30;;;;;;;0.70;0.50;;;;;;;20.94;94.46;98793.28;20992835;28;20052;-59
2023/08/03 06:21:32;;;;;;;4.13;0.77;;;;;;;21.03;94.76;98822.81;20990889;28;20175;-59
2023/08/03 06:31:36;;;;;;;1.75;0.70;;;;;;;21.06;95.32;98833.22;21014577;28;20072;-59
2023/08/03 06:41:38;;;;;;;1.83;0.70;;;;;;;21.08;95.25;98841.97;21012418;28;20044;-59
2023/08/03 06:51:42;;;;;;;2.78;0.85;;;;;;;21.09;95.70;98870.69;20972941;28;20053;-58
2023/08/03 07:01:44;;;;;;;6.40;0.88;;;;;;;21.10;96.76;98880.47;20987896;28;20143;-59
2023/08/03 07:11:46;;;;;;;3.17;0.88;;;;;;;21.11;97.14;98901.06;21003122;28;20118;-59
2023/08/03 07:21:48;;;;;;;1.38;0.50;;;;;;;21.14;97.25;98914.19;20974011;28;20044;-59
2023/08/03 07:31:50;;;;;;;1.58;0.60;;;;;;;21.18;97.05;98936.25;20974582;28;20109;-59
2023/08/03 07:41:51;;;;;;;0.98;0.50;;;;;;;21.22;97.34;98949.19;21402964;22;20073;-59
2023/08/03 07:51:53;;;;;;;0.82;0.50;;;;;;;21.27;96.97;98959.38;20986956;28;20131;-58
2023/08/03 08:01:55;;;;;;;2.05;0.88;;;;;;;21.33;96.80;98984.78;20981924;28;20058;-59
2023/08/03 08:11:57;;;;;;;1.00;0.40;;;;;;;21.37;96.34;98996.88;20992211;28;20101;-60
2023/08/03 08:22:00;;;;;;;1.90;0.60;;;;;;;21.45;96.07;99010.19;20974924;28;20491;-59
